Time;durP1;ratioP1;P1;durP2;ratioP2;P2;SDS_P1;SDS_P2;PMS_P1;PMS_P2;Temp;Humidity;BMP_temperature;BMP_pressure;BME280_temperature;BME280_humidity;BME280_pressure;Samples;Min_cycle;Max_cycle;Signal;HPM_P1;HPM_P2
2023/12/01 00:02:02;;;;;;;41.80;13.07;;;0.90;99.90;;;;;;5075063;28;20105;-49
2023/12/01 00:04:28;;;;;;;39.50;11.73;;;0.90;99.90;;;;;;5074761;28;20032;-49
2023/12/01 00:06:53;;;;;;;38.00;12.23;;;0.90;99.90;;;;;;5075003;28;20036;-50
2023/12/01 00:09:19;;;;;;;42.37;12.97;;;0.90;99.90;;;;;;5074828;28;20400;-49
2023/12/01 00:11:45;;;;;;;44.60;13.47;;;0.90;99.90;;;;;;5073535;28;20064;-49
2023/12/01 00:14:10;;;;;;;45.40;13.77;;;0.90;99.90;;;;;;5074606;28;20023;-48
2023/12/01 00:16:36;;;;;;;46.47;13.53;;;1.00;99.90;;;;;;5074792;28;20449;-49
2023/12/01 00:19:02;;;;;;;40.90;12.53;;;1.00;99.90;;;;;;5074628;28;20123;-52
2023/12/01 00:21:27;;;;;;;39.90;12.67;;;1.00;99.90;;;;;;5074645;28;20111;-52
2023/12/01 00:23:53;;;;;;;34.87;12.67;;;1.00;99.90;;;;;;5074481;28;20033;-53
2023/12/01 00:26:19;;;;;;;45.90;14.80;;;1.00;99.90;;;;;;5074591;28;20074;-47
2023/12/01 00:28:52;;;;;;;50.83;13.53;;;0.90;99.90;;;;;;5074380;28;20052;-49
2023/12/01 00:31:18;;;;;;;40.87;13.30;;;1.00;99.90;;;;;;5073189;28;20067;-47
2023/12/01 00:33:43;;;;;;;46.30;12.53;;;1.00;99.90;;;;;;5074497;28;20025;-48
2023/12/01 00:36:09;;;;;;;41.17;12.60;;;1.00;99.90;;;;;;5072449;28;20062;-54
2023/12/01 00:38:35;;;;;;;41.53;13.17;;;1.00;99.90;;;;;;5074231;28;20036;-53
2023/12/01 00:41:00;;;;;;;42.50;13.40;;;1.00;99.90;;;;;;5074291;28;20111;-52
2023/12/01 00:43:26;;;;;;;42.33;13.53;;;1.00;99.90;;;;;;5074236;28;20082;-51
2023/12/01 00:45:52;;;;;;;34.37;11.90;;;1.00;99.90;;;;;;5072655;28;20028;-48
2023/12/01 00:48:17;;;;;;;45.63;14.40;;;1.00;99.90;;;;;;5072840;28;20119;-51
2023/12/01 00:50:43;;;;;;;41.30;13.53;;;1.00;99.90;;;;;;5072807;28;20120;-52
2023/12/01 00:53:09;;;;;;;35.10;12.57;;;0.90;99.90;;;;;;5072820;28;20035;-52
2023/12/01 00:55:35;;;;;;;36.40;11.53;;;0.90;99.90;;;;;;5072701;28;20047;-49
2023/12/01 00:58:01;;;;;;;32.90;11.90;;;0.90;99.90;;;;;;5072655;28;20032;-49
2023/12/01 01:00:27;;;;;;;36.87;11.30;;;0.90;99.90;;;;;;5073876;28;20773;-51
2023/12/01 01:02:53;;;;;;;36.43;11.03;;;0.90;99.90;;;;;;5073953;28;20044;-48
2023/12/01 01:05:19;;;;;;;42.60;11.53;;;0.90;99.90;;;;;;5073682;28;20028;-52
2023/12/01 01:07:45;;;;;;;34.47;11.87;;;1.00;99.90;;;;;;5073864;28;20385;-53
2023/12/01 01:10:10;;;;;;;36.90;10.47;;;1.00;99.90;;;;;;5072374;28;20501;-48
2023/12/01 01:12:36;;;;;;;38.83;12.43;;;1.00;99.90;;;;;;5072421;28;20028;-49
2023/12/01 01:15:03;;;;;;;31.67;11.73;;;1.10;99.90;;;;;;5073502;28;20101;-53
2023/12/01 01:17:31;;;;;;;37.83;12.93;;;1.10;99.90;;;;;;5072331;28;20040;-52
2023/12/01 01:19:58;;;;;;;39.97;13.03;;;1.10;99.90;;;;;;5072090;28;20039;-51
2023/12/01 01:22:24;;;;;;;35.00;11.53;;;1.10;99.90;;;;;;5072343;28;20123;-48
2023/12/01 01:24:50;;;;;;;35.97;11.90;;;1.10;99.90;;;;;;5071979;28;20112;-54
2023/12/01 01:27:16;;;;;;;38.17;12.23;;;1.10;99.90;;;;;;5072071;28;20123;-53
2023/12/01 01:29:43;;;;;;;34.63;12.20;;;1.10;99.90;;;;;;5073280;28;20028;-50
2023/12/01 01:32:08;;;;;;;36.70;11.90;;;1.20;99.90;;;;;;5072091;28;20032;-51
2023/12/01 01:34:34;;;;;;;39.87;12.83;;;1.20;99.90;;;;;;5073139;28;20020;-51
2023/12/01 01:36:59;;;;;;;38.97;12.27;;;1.10;99.90;;;;;;5073229;28;20432;-51
2023/12/01 01:39:26;;;;;;;40.40;13.73;;;1.10;99.90;;;;;;5073099;28;20032;-50
2023/12/01 01:41:53;;;;;;;33.33;11.30;;;1.10;99.90;;;;;;5071672;28;20487;-49
2023/12/01 01:44:18;;;;;;;35.47;11.70;;;1.10;99.90;;;;;;5073081;28;20029;-52
2023/12/01 01:46:45;;;;;;;28.57;9.80;;;1.10;99.90;;;;;;5072682;28;20527;-53
2023/12/01 01:49:11;;;;;;;37.27;11.57;;;1.10;99.90;;;;;;5070945;28;20025;-50
2023/12/01 01:51:38;;;;;;;46.03;12.63;;;1.10;99.90;;;;;;5073313;28;20021;-50
2023/12/01 01:54:04;;;;;;;33.67;11.23;;;1.10;99.90;;;;;;5054842;28;20035;-49
2023/12/01 01:56:31;;;;;;;35.40;11.53;;;1.10;99.90;;;;;;5072773;28;20451;-48
2023/12/01 01:58:58;;;;;;;30.67;11.87;;;1.10;99.90;;;;;;5071484;28;20676;-52
2023/12/01 02:01:25;;;;;;;32.53;11.20;;;1.20;99.90;;;;;;5071406;28;20040;-49
2023/12/01 02:03:54;;;;;;;33.80;11.73;;;1.10;99.90;;;;;;5071260;28;20029;-53
2023/12/01 02:06:20;;;;;;;32.80;11.25;;;1.10;99.90;;;;;;5072636;28;20046;-50
2023/12/01 02:08:46;;;;;;;36.03;12.50;;;1.10;99.90;;;;;;5071191;28;20032;-52
2023/12/01 02:11:14;;;;;;;36.40;12.50;;;1.10;99.90;;;;;;5072420;28;20028;-51
2023/12/01 02:13:40;;;;;;;30.83;10.57;;;1.10;99.90;;;;;;5071214;28;20495;-50
2023/12/01 02:16:09;;;;;;;26.57;10.27;;;1.10;99.90;;;;;;5071141;28;20410;-53
2023/12/01 02:18:34;;;;;;;32.63;11.73;;;1.10;99.90;;;;;;5072368;28;20025;-54
2023/12/01 02:21:00;;;;;;;32.13;11.97;;;1.10;99.90;;;;;;5071059;28;20039;-54
2023/12/01 02:23:27;;;;;;;33.13;11.50;;;1.10;99.90;;;;;;5072387;28;20115;-51
2023/12/01 02:25:53;;;;;;;35.20;11.97;;;1.10;99.90;;;;;;5070683;28;20032;-52
2023/12/01 02:28:19;;;;;;;40.10;11.00;;;1.10;99.90;;;;;;5072169;28;20036;-52
2023/12/01 02:30:52;;;;;;;36.07;12.63;;;1.10;99.90;;;;;;5070896;28;20389;-54
2023/12/01 02:33:19;;;;;;;32.67;10.97;;;1.10;99.90;;;;;;5070958;28;20035;-54
2023/12/01 02:35:50;;;;;;;43.50;12.33;;;1.20;99.90;;;;;;5072033;28;20024;-53
2023/12/01 02:38:16;;;;;;;36.70;12.43;;;1.20;99.90;;;;;;5070537;28;20028;-53
2023/12/01 02:40:49;;;;;;;36.83;12.37;;;1.30;99.90;;;;;;5070775;28;20040;-49
2023/12/01 02:43:16;;;;;;;34.07;11.53;;;1.20;99.90;;;;;;5070790;28;20046;-50
2023/12/01 02:45:42;;;;;;;34.80;12.20;;;1.30;99.90;;;;;;5071856;28;20032;-51
2023/12/01 02:48:08;;;;;;;29.57;10.27;;;1.20;99.90;;;;;;5072027;28;20370;-53
2023/12/01 02:50:35;;;;;;;34.50;11.00;;;1.20;99.90;;;;;;5070547;28;20031;-48
2023/12/01 02:53:01;;;;;;;37.70;11.53;;;1.30;99.90;;;;;;5070651;28;20082;-51
2023/12/01 02:55:27;;;;;;;40.00;12.00;;;1.30;99.90;;;;;;5071742;28;20082;-48
2023/12/01 02:57:53;;;;;;;33.50;12.10;;;1.20;99.90;;;;;;5070548;28;20432;-51
2023/12/01 03:00:19;;;;;;;33.67;11.23;;;1.20;99.90;;;;;;5070195;28;20123;-51
2023/12/01 03:02:46;;;;;;;34.73;11.77;;;1.20;99.90;;;;;;5071855;28;20031;-53
2023/12/01 03:05:12;;;;;;;31.37;9.90;;;1.20;99.90;;;;;;5070283;28;20078;-50
2023/12/01 03:07:38;;;;;;;33.30;10.73;;;1.20;99.90;;;;;;5070563;28;20033;-51
2023/12/01 03:10:07;;;;;;;37.20;11.73;;;1.20;99.90;;;;;;5070253;28;20112;-51
2023/12/01 03:12:33;;;;;;;30.73;10.27;;;1.10;99.90;;;;;;5070641;28;20090;-51
2023/12/01 03:14:59;;;;;;;36.07;10.80;;;1.20;99.90;;;;;;5070291;28;20458;-50
2023/12/01 03:17:25;;;;;;;34.67;10.57;;;1.20;99.90;;;;;;5071725;28;20032;-52
2023/12/01 03:19:51;;;;;;;38.43;13.07;;;1.20;99.90;;;;;;5070131;28;20085;-51
2023/12/01 03:22:18;;;;;;;36.10;10.97;;;1.20;99.90;;;;;;5071697;28;20478;-51
2023/12/01 03:24:47;;;;;;;37.53;11.77;;;1.20;99.90;;;;;;5070138;28;20129;-50
2023/12/01 03:27:13;;;;;;;41.55;11.77;;;1.20;99.90;;;;;;5053745;28;20032;-52
2023/12/01 03:29:39;;;;;;;35.97;11.70;;;1.20;99.90;;;;;;5070131;28;20058;-51
2023/12/01 03:32:05;;;;;;;33.80;11.17;;;1.20;99.90;;;;;;5071599;28;20074;-51
2023/12/01 03:34:31;;;;;;;33.53;11.60;;;1.20;99.90;;;;;;5070052;28;20439;-51
2023/12/01 03:36:57;;;;;;;29.73;10.90;;;1.10;99.90;;;;;;5071551;28;20033;-52
2023/12/01 03:39:22;;;;;;;31.80;10.70;;;1.10;99.90;;;;;;5070042;28;20065;-52
2023/12/01 03:41:48;;;;;;;36.03;11.47;;;1.10;99.90;;;;;;5070179;28;20520;-52
2023/12/01 03:44:15;;;;;;;35.77;11.07;;;1.10;99.90;;;;;;5071311;28;20384;-49
2023/12/01 03:46:40;;;;;;;27.87;10.43;;;1.10;99.90;;;;;;5070182;28;20033;-53
2023/12/01 03:49:06;;;;;;;34.00;11.27;;;1.10;99.90;;;;;;5070036;28;20032;-52
2023/12/01 03:51:32;;;;;;;30.30;10.50;;;1.10;99.90;;;;;;5069982;28;20032;-52
2023/12/01 03:53:57;;;;;;;29.37;9.23;;;1.10;99.90;;;;;;5069987;28;20025;-52
2023/12/01 03:56:23;;;;;;;27.30;8.87;;;1.10;99.90;;;;;;5071670;28;20473;-50
2023/12/01 03:58:54;;;;;;;35.20;10.00;;;1.10;99.90;;;;;;5070059;28;20060;-48
2023/12/01 04:01:20;;;;;;;29.07;11.10;;;1.10;99.90;;;;;;5069971;28;20074;-53
2023/12/01 04:03:46;;;;;;;31.67;10.20;;;1.10;99.90;;;;;;5071196;28;20029;-49
2023/12/01 04:06:11;;;;;;;27.13;9.73;;;1.00;99.90;;;;;;5069850;28;20097;-52
2023/12/01 04:08:37;;;;;;;32.90;11.17;;;1.00;99.90;;;;;;5069897;28;20020;-48
2023/12/01 04:11:04;;;;;;;33.33;10.70;;;1.10;99.90;;;;;;5070804;28;20274;-52
2023/12/01 04:13:29;;;;;;;32.40;10.23;;;1.10;99.90;;;;;;5073632;28;20025;-51
2023/12/01 04:15:55;;;;;;;32.23;10.33;;;1.00;99.90;;;;;;5074647;28;20178;-48
2023/12/01 04:18:21;;;;;;;30.27;10.00;;;1.00;99.90;;;;;;5073267;28;20032;-50
2023/12/01 04:20:47;;;;;;;33.23;10.30;;;1.00;99.90;;;;;;5073466;28;20423;-53
2023/12/01 04:23:14;;;;;;;34.80;11.50;;;1.00;99.90;;;;;;5073389;28;20036;-53
2023/12/01 04:25:46;;;;;;;34.57;11.03;;;1.00;99.90;;;;;;5073096;28;20029;-51
2023/12/01 04:28:13;;;;;;;35.00;11.27;;;1.00;99.90;;;;;;5074529;28;20021;-50
2023/12/01 04:30:40;;;;;;;32.33;9.80;;;1.10;99.90;;;;;;5074362;28;20028;-52
2023/12/01 04:33:06;;;;;;;36.93;10.50;;;1.00;99.90;;;;;;5074732;28;20107;-53
2023/12/01 04:35:33;;;;;;;36.50;10.70;;;1.00;99.90;;;;;;5073184;28;20043;-51
2023/12/01 04:38:05;;;;;;;38.70;11.73;;;1.00;99.90;;;;;;5074170;28;20090;-52
2023/12/01 04:40:31;;;;;;;36.70;11.50;;;1.00;99.90;;;;;;5074313;28;20028;-53
2023/12/01 04:42:58;;;;;;;34.63;11.63;;;1.00;99.90;;;;;;5074316;28;20558;-54
2023/12/01 04:45:25;;;;;;;33.07;10.93;;;1.00;99.90;;;;;;5074059;28;20048;-54
2023/12/01 04:47:53;;;;;;;32.97;10.40;;;1.00;99.90;;;;;;5074187;28;20021;-54
2023/12/01 04:50:21;;;;;;;31.97;10.13;;;1.00;99.90;;;;;;5074077;28;20028;-53
2023/12/01 04:52:57;;;;;;;34.70;11.27;;;1.10;99.90;;;;;;5074133;28;20058;-54
2023/12/01 04:55:25;;;;;;;37.07;9.77;;;1.10;99.90;;;;;;5074047;28;20039;-53
2023/12/01 04:57:51;;;;;;;30.10;9.87;;;1.10;99.90;;;;;;5074019;28;20071;-54
2023/12/01 05:00:22;;;;;;;36.40;11.67;;;1.10;99.90;;;;;;5073965;28;20054;-53
2023/12/01 05:02:55;;;;;;;32.20;10.30;;;1.10;99.90;;;;;;5074086;28;20153;-53
2023/12/01 05:05:29;;;;;;;40.73;12.73;;;1.10;99.90;;;;;;5073708;28;20033;-50
2023/12/01 05:07:59;;;;;;;33.83;11.43;;;1.10;99.90;;;;;;5072600;28;20474;-53
2023/12/01 05:10:27;;;;;;;34.97;10.47;;;1.10;99.90;;;;;;5073642;28;20028;-51
2023/12/01 05:12:57;;;;;;;29.07;9.63;;;1.10;99.90;;;;;;5073983;28;20050;-52
2023/12/01 05:15:25;;;;;;;31.37;10.33;;;1.10;99.90;;;;;;5073588;28;20040;-53
2023/12/01 05:17:51;;;;;;;27.00;10.23;;;1.10;99.90;;;;;;5073645;28;20459;-52
2023/12/01 05:20:17;;;;;;;33.53;11.20;;;1.10;99.90;;;;;;5073497;28;20135;-53
2023/12/01 05:22:51;;;;;;;27.90;9.37;;;1.10;99.90;;;;;;5073590;28;20389;-53
2023/12/01 05:25:18;;;;;;;33.17;9.90;;;1.10;99.90;;;;;;5073341;28;20033;-52
2023/12/01 05:27:47;;;;;;;34.90;10.73;;;1.10;99.90;;;;;;5073517;28;20055;-53
2023/12/01 05:30:14;;;;;;;;;;;1.10;99.90;;;;;;5056021;28;20032;-53
2023/12/01 05:32:41;;;;;;;32.37;9.93;;;1.10;99.90;;;;;;5073433;28;19912;-52
2023/12/01 05:35:10;;;;;;;32.43;10.30;;;1.00;99.90;;;;;;5073205;28;20036;-52
2023/12/01 05:37:50;;;;;;;37.63;10.57;;;1.00;99.90;;;;;;5073151;28;20107;-53
2023/12/01 05:40:30;;;;;;;29.10;9.30;;;1.10;99.90;;;;;;5073137;28;20089;-49
2023/12/01 05:42:58;;;;;;;34.67;11.10;;;1.00;99.90;;;;;;5073254;28;20037;-53
2023/12/01 05:45:26;;;;;;;28.67;9.47;;;1.00;99.90;;;;;;5072934;28;20039;-51
2023/12/01 05:47:52;;;;;;;29.43;9.93;;;0.90;99.90;;;;;;5073473;28;20032;-52
2023/12/01 05:50:23;;;;;;;30.90;9.47;;;1.00;99.90;;;;;;5072847;28;20561;-51
2023/12/01 05:52:51;;;;;;;29.47;9.50;;;0.90;99.90;;;;;;5073041;28;20158;-52
2023/12/01 05:55:21;;;;;;;28.53;10.03;;;0.90;99.90;;;;;;5071665;28;20032;-49
2023/12/01 05:57:58;;;;;;;31.33;9.63;;;0.90;99.90;;;;;;5072889;28;20504;-51
2023/12/01 06:00:32;;;;;;;24.60;9.00;;;0.90;99.90;;;;;;5072691;28;20556;-53
2023/12/01 06:02:59;;;;;;;29.30;10.07;;;0.90;99.90;;;;;;5073015;28;20655;-54
2023/12/01 06:05:26;;;;;;;30.57;9.10;;;0.90;99.90;;;;;;5072361;28;20039;-52
2023/12/01 06:07:54;;;;;;;30.33;10.63;;;0.90;99.90;;;;;;5072654;28;20029;-53
2023/12/01 06:10:21;;;;;;;32.60;9.83;;;0.80;99.90;;;;;;5072545;28;20396;-52
2023/12/01 06:12:47;;;;;;;32.03;9.57;;;0.80;99.90;;;;;;5072501;28;20174;-53
2023/12/01 06:15:16;;;;;;;31.77;9.57;;;0.80;99.90;;;;;;5072378;28;20064;-52
2023/12/01 06:17:44;;;;;;;32.50;10.55;;;0.80;99.90;;;;;;5072445;28;20492;-51
2023/12/01 06:20:17;;;;;;;33.93;10.13;;;0.80;99.90;;;;;;5072140;28;20037;-53
2023/12/01 06:22:48;;;;;;;26.80;9.73;;;0.80;99.90;;;;;;5072418;28;20032;-53
2023/12/01 06:25:18;;;;;;;30.30;10.27;;;0.80;99.90;;;;;;5072021;28;20492;-51
2023/12/01 06:27:44;;;;;;;29.07;8.57;;;0.80;99.90;;;;;;5072268;28;20028;-51
2023/12/01 06:30:12;;;;;;;32.10;9.07;;;0.80;99.90;;;;;;5072126;28;20036;-51
2023/12/01 06:32:47;;;;;;;28.93;9.50;;;0.70;99.90;;;;;;5072260;28;20082;-50
2023/12/01 06:35:17;;;;;;;23.33;8.33;;;0.70;99.90;;;;;;5070365;28;20463;-49
2023/12/01 06:37:44;;;;;;;27.00;8.57;;;0.70;99.90;;;;;;5071993;28;20035;-49
2023/12/01 06:40:15;;;;;;;27.13;8.73;;;0.70;99.90;;;;;;5071928;28;20040;-48
2023/12/01 06:42:48;;;;;;;29.20;9.07;;;0.70;99.90;;;;;;5072151;28;20393;-49
2023/12/01 06:45:15;;;;;;;22.90;8.33;;;0.70;99.90;;;;;;5071839;28;20036;-49
2023/12/01 06:47:46;;;;;;;27.13;8.57;;;0.80;99.90;;;;;;5071968;28;20021;-48
2023/12/01 06:50:16;;;;;;;21.50;8.70;;;0.90;99.90;;;;;;5071692;28;20466;-49
2023/12/01 06:52:45;;;;;;;;;;;0.90;99.90;;;;;;5072424;28;20177;-50
2023/12/01 06:55:11;;;;;;;23.55;7.43;;;0.80;99.90;;;;;;5071923;28;19908;-49
2023/12/01 06:57:41;;;;;;;26.03;7.37;;;0.90;99.90;;;;;;5071833;28;20054;-49
2023/12/01 07:00:09;;;;;;;27.80;8.67;;;0.90;99.90;;;;;;5071759;28;20470;-48
2023/12/01 07:02:38;;;;;;;25.57;8.43;;;0.90;99.90;;;;;;5070631;28;20538;-48
2023/12/01 07:05:19;;;;;;;24.52;7.97;;;0.80;99.90;;;;;;5071514;28;20050;-49
2023/12/01 07:07:45;;;;;;;19.27;6.50;;;0.70;99.90;;;;;;5071721;28;20036;-54
2023/12/01 07:10:11;;;;;;;23.13;6.60;;;0.70;99.90;;;;;;5071625;28;20118;-54
2023/12/01 07:12:36;;;;;;;21.03;7.50;;;0.70;99.90;;;;;;5071719;28;20024;-54
2023/12/01 07:15:02;;;;;;;26.27;7.03;;;0.80;99.90;;;;;;5071663;28;20056;-54
2023/12/01 07:17:29;;;;;;;24.20;8.20;;;0.70;99.90;;;;;;5071648;28;20476;-53
2023/12/01 07:19:55;;;;;;;28.43;9.23;;;0.70;99.90;;;;;;5071421;28;20127;-53
2023/12/01 07:22:22;;;;;;;29.57;8.27;;;0.70;99.90;;;;;;5071787;28;20071;-53
2023/12/01 07:24:48;;;;;;;24.97;8.63;;;0.70;99.90;;;;;;5071384;28;20037;-53
2023/12/01 07:27:14;;;;;;;26.33;8.57;;;0.70;99.90;;;;;;5071663;28;20087;-53
2023/12/01 07:29:40;;;;;;;32.13;10.17;;;0.80;99.90;;;;;;5072173;28;20025;-49
2023/12/01 07:32:07;;;;;;;30.50;9.10;;;0.80;99.90;;;;;;5071662;28;20025;-52
2023/12/01 07:34:33;;;;;;;29.83;11.23;;;0.70;99.90;;;;;;5071521;28;20386;-49
2023/12/01 07:36:58;;;;;;;31.67;10.37;;;0.70;99.90;;;;;;5071886;28;20029;-51
2023/12/01 07:39:24;;;;;;;36.73;11.07;;;0.70;99.90;;;;;;5071347;28;20378;-53
2023/12/01 07:41:50;;;;;;;34.40;10.90;;;0.70;99.90;;;;;;5071583;28;20060;-52
2023/12/01 07:44:16;;;;;;;29.20;10.60;;;0.70;99.90;;;;;;5071416;28;20033;-51
2023/12/01 07:46:41;;;;;;;29.97;10.60;;;0.70;99.90;;;;;;5073447;28;20029;-49
2023/12/01 07:49:11;;;;;;;35.73;10.30;;;0.70;99.90;;;;;;5075127;28;20028;-53
2023/12/01 07:51:37;;;;;;;;;;;0.70;99.90;;;;;;5075815;28;20102;-53
2023/12/01 07:54:03;;;;;;;34.37;10.00;;;0.70;99.90;;;;;;5073999;28;19909;-53
2023/12/01 07:56:28;;;;;;;33.03;9.97;;;0.60;99.90;;;;;;5075262;28;20040;-49
2023/12/01 07:58:54;;;;;;;34.37;11.07;;;0.70;99.90;;;;;;5075039;28;20043;-54
2023/12/01 08:01:19;;;;;;;37.00;10.63;;;0.70;99.90;;;;;;5074853;28;20040;-52
2023/12/01 08:03:46;;;;;;;35.33;10.33;;;0.60;99.90;;;;;;5075070;28;20029;-52
2023/12/01 08:06:13;;;;;;;33.87;10.03;;;0.60;99.90;;;;;;5074776;28;20028;-51
2023/12/01 08:08:40;;;;;;;32.07;10.87;;;0.60;99.90;;;;;;5073592;28;20120;-54
2023/12/01 08:11:05;;;;;;;29.63;9.27;;;0.60;99.90;;;;;;5074824;28;20420;-53
2023/12/01 08:13:31;;;;;;;28.43;8.90;;;0.50;99.90;;;;;;5074792;28;20028;-51
2023/12/01 08:15:57;;;;;;;38.00;10.07;;;0.50;99.90;;;;;;5074700;28;20029;-50
2023/12/01 08:18:22;;;;;;;35.37;11.43;;;0.40;99.90;;;;;;5074596;28;20024;-54
2023/12/01 08:20:49;;;;;;;32.47;10.63;;;0.40;99.90;;;;;;5073466;28;20058;-52
2023/12/01 08:23:15;;;;;;;39.23;10.83;;;0.40;99.90;;;;;;5074689;28;20099;-51
2023/12/01 08:25:42;;;;;;;42.10;12.73;;;0.40;99.90;;;;;;5074481;28;20058;-48
2023/12/01 08:28:07;;;;;;;40.77;12.17;;;0.50;99.90;;;;;;5074619;28;20039;-52
2023/12/01 08:30:33;;;;;;;37.63;12.40;;;0.40;99.90;;;;;;5074379;28;20033;-49
2023/12/01 08:32:58;;;;;;;41.53;11.80;;;0.40;99.90;;;;;;5074720;28;20040;-52
2023/12/01 08:35:24;;;;;;;37.83;11.73;;;0.40;99.90;;;;;;5074311;28;20052;-52
2023/12/01 08:37:51;;;;;;;42.23;12.03;;;0.40;99.90;;;;;;5074288;28;20127;-53
2023/12/01 08:40:16;;;;;;;36.83;10.93;;;0.40;99.90;;;;;;5074374;28;20036;-53
2023/12/01 08:42:42;;;;;;;38.13;13.10;;;0.40;99.90;;;;;;5074371;28;20074;-53
2023/12/01 08:45:09;;;;;;;37.63;10.37;;;0.40;99.90;;;;;;5074098;28;20067;-50
2023/12/01 08:47:35;;;;;;;29.93;10.47;;;0.40;99.90;;;;;;5074471;28;20032;-53
2023/12/01 08:50:01;;;;;;;29.40;9.70;;;0.40;99.90;;;;;;5072842;28;20465;-54
2023/12/01 08:52:26;;;;;;;34.43;10.63;;;0.50;99.90;;;;;;5074182;28;20060;-50
2023/12/01 08:54:52;;;;;;;36.20;10.33;;;0.50;99.90;;;;;;5074068;28;20066;-54
2023/12/01 08:57:18;;;;;;;41.23;12.83;;;0.50;99.90;;;;;;5073512;28;20104;-53
2023/12/01 08:59:43;;;;;;;39.67;11.80;;;0.50;99.90;;;;;;5073868;28;20043;-52
2023/12/01 09:02:10;;;;;;;34.30;11.67;;;0.50;99.90;;;;;;5074023;28;20447;-52
2023/12/01 09:04:35;;;;;;;40.80;11.30;;;0.50;99.90;;;;;;5072556;28;20032;-54
2023/12/01 09:07:01;;;;;;;34.10;10.47;;;0.50;99.90;;;;;;5073923;28;20032;-51
2023/12/01 09:09:27;;;;;;;36.67;11.43;;;0.50;99.90;;;;;;5073766;28;20060;-51
2023/12/01 09:11:53;;;;;;;30.83;10.50;;;0.40;99.90;;;;;;5073650;28;20032;-50
2023/12/01 09:14:19;;;;;;;33.83;10.57;;;0.50;99.90;;;;;;5072300;28;20036;-53
2023/12/01 09:16:45;;;;;;;29.80;9.73;;;0.40;99.90;;;;;;5073703;28;20028;-52
2023/12/01 09:19:10;;;;;;;31.97;10.03;;;0.50;99.90;;;;;;5073524;28;20081;-49
2023/12/01 09:21:37;;;;;;;29.60;10.20;;;0.50;99.90;;;;;;5073534;28;20032;-49
2023/12/01 09:24:02;;;;;;;34.33;9.67;;;0.50;99.90;;;;;;5073422;28;20024;-51
2023/12/01 09:26:31;;;;;;;26.93;9.33;;;0.50;99.90;;;;;;5073509;28;20555;-53
2023/12/01 09:28:57;;;;;;;34.03;9.75;;;0.60;99.90;;;;;;5073371;28;20473;-50
2023/12/01 09:31:23;;;;;;;29.77;10.20;;;0.50;99.90;;;;;;5073315;28;20063;-50
2023/12/01 09:33:49;;;;;;;35.43;10.90;;;0.50;99.90;;;;;;5073344;28;20028;-52
2023/12/01 09:36:17;;;;;;;34.70;11.23;;;0.40;99.90;;;;;;5073238;28;20202;-53
2023/12/01 09:38:44;;;;;;;31.67;10.27;;;0.40;99.90;;;;;;5073052;28;20060;-50
2023/12/01 09:41:14;;;;;;;30.47;10.03;;;0.50;99.90;;;;;;5073183;28;20029;-49
2023/12/01 09:43:43;;;;;;;36.10;10.97;;;0.50;99.90;;;;;;5073145;28;20538;-53
2023/12/01 09:46:11;;;;;;;29.55;10.48;;;0.50;99.90;;;;;;5072967;28;20063;-54
2023/12/01 09:48:40;;;;;;;35.00;10.37;;;0.50;99.90;;;;;;5072945;28;20024;-52
2023/12/01 09:51:07;;;;;;;;;;;0.50;99.90;;;;;;5073507;28;20028;-53
2023/12/01 09:53:34;;;;;;;32.13;10.23;;;0.40;99.90;;;;;;5072934;28;19954;-52
2023/12/01 09:56:00;;;;;;;30.60;10.20;;;0.50;99.90;;;;;;5072686;28;20120;-49
2023/12/01 09:58:27;;;;;;;31.73;10.47;;;0.40;99.90;;;;;;5072860;28;20024;-52
2023/12/01 10:00:53;;;;;;;34.37;10.47;;;0.50;99.90;;;;;;5072745;28;20078;-53
2023/12/01 10:03:18;;;;;;;35.43;11.00;;;0.50;99.90;;;;;;5072761;28;20036;-48
2023/12/01 10:05:44;;;;;;;35.27;10.27;;;0.50;99.90;;;;;;5072474;28;20048;-53
2023/12/01 10:08:11;;;;;;;31.13;10.47;;;0.50;99.90;;;;;;5072092;28;20029;-49
2023/12/01 10:10:37;;;;;;;28.43;9.00;;;0.50;99.90;;;;;;5072293;28;20139;-52
2023/12/01 10:13:07;;;;;;;32.47;10.30;;;0.50;99.90;;;;;;5072638;28;20124;-51
2023/12/01 10:15:37;;;;;;;33.40;10.83;;;0.50;99.90;;;;;;5072376;28;20032;-51
2023/12/01 10:18:09;;;;;;;25.53;8.33;;;0.50;99.90;;;;;;5072593;28;20033;-53
2023/12/01 10:20:35;;;;;;;29.97;9.80;;;0.50;99.90;;;;;;5072338;28;20075;-49
2023/12/01 10:23:15;;;;;;;28.60;10.20;;;0.60;99.90;;;;;;5072417;28;20071;-50
2023/12/01 10:25:45;;;;;;;30.08;9.40;;;0.50;99.90;;;;;;5072195;28;20040;-53
2023/12/01 10:28:12;;;;;;;33.73;10.40;;;0.60;99.90;;;;;;5072549;28;20048;-51
2023/12/01 10:30:50;;;;;;;33.80;10.30;;;0.70;99.90;;;;;;5070890;28;20546;-48
2023/12/01 10:33:16;;;;;;;30.93;10.30;;;0.60;99.90;;;;;;5072285;28;20025;-53
2023/12/01 10:36:02;;;;;;;36.07;11.67;;;0.70;99.90;;;;;;5072156;28;20029;-53
2023/12/01 10:38:30;;;;;;;29.97;10.17;;;0.60;99.90;;;;;;5072038;28;20032;-51
2023/12/01 10:40:56;;;;;;;31.77;10.07;;;0.60;99.90;;;;;;5072131;28;20036;-51
2023/12/01 10:43:22;;;;;;;28.43;9.57;;;0.60;99.90;;;;;;5072087;28;20393;-52
2023/12/01 10:45:50;;;;;;;24.60;10.23;;;0.60;99.90;;;;;;5071886;28;20037;-52
2023/12/01 10:48:21;;;;;;;25.93;9.53;;;0.50;99.90;;;;;;5072047;28;20036;-51
2023/12/01 10:50:48;;;;;;;28.40;9.13;;;0.50;99.90;;;;;;5071922;28;20469;-53
2023/12/01 10:53:18;;;;;;;29.40;9.27;;;0.60;99.90;;;;;;5072062;28;20056;-49
2023/12/01 10:55:48;;;;;;;25.90;8.80;;;0.60;99.90;;;;;;5071833;28;20070;-50
2023/12/01 10:58:22;;;;;;;31.77;9.50;;;0.60;99.90;;;;;;5072373;28;20039;-53
2023/12/01 11:00:52;;;;;;;26.93;9.83;;;0.60;99.90;;;;;;5071932;28;20448;-52
2023/12/01 11:03:22;;;;;;;28.67;9.13;;;0.60;99.90;;;;;;5071995;28;20068;-53
2023/12/01 11:05:52;;;;;;;23.23;7.83;;;0.60;99.90;;;;;;5071752;28;20040;-51
2023/12/01 11:08:46;;;;;;;30.60;9.47;;;0.60;99.90;;;;;;5071899;28;20021;-53
2023/12/01 11:11:55;;;;;;;24.60;8.23;;;0.60;99.90;;;;;;5071783;28;20029;-50
2023/12/01 11:14:25;;;;;;;29.83;9.13;;;0.60;99.90;;;;;;5033820;28;20492;-52
2023/12/01 11:16:51;;;;;;;29.73;8.27;;;0.60;99.90;;;;;;5071715;28;20039;-54
2023/12/01 11:19:18;;;;;;;30.27;8.63;;;0.60;99.90;;;;;;5072032;28;20046;-50
2023/12/01 11:21:47;;;;;;;25.83;9.33;;;0.60;99.90;;;;;;5075649;28;20036;-51
2023/12/01 11:24:26;;;;;;;;;;;0.60;99.90;;;;;;5076393;28;20032;-52
2023/12/01 11:26:52;;;;;;;30.13;9.33;;;0.60;99.90;;;;;;5074560;28;19938;-49
2023/12/01 11:29:29;;;;;;;25.97;9.10;;;0.60;99.90;;;;;;5076221;28;20377;-50
2023/12/01 11:31:57;;;;;;;25.37;8.30;;;0.60;99.90;;;;;;5075765;28;20039;-51
2023/12/01 11:34:25;;;;;;;29.53;8.50;;;0.60;99.90;;;;;;5075581;28;20024;-53
2023/12/01 11:36:52;;;;;;;27.73;9.03;;;0.60;99.90;;;;;;5075666;28;20040;-53
2023/12/01 11:39:29;;;;;;;28.53;9.70;;;0.60;99.90;;;;;;5075580;28;20041;-54
2023/12/01 11:41:58;;;;;;;30.87;9.27;;;0.60;99.90;;;;;;5075412;28;20392;-53
2023/12/01 11:44:29;;;;;;;30.02;9.88;;;0.60;99.90;;;;;;5075332;28;20028;-54
2023/12/01 11:46:56;;;;;;;26.60;7.87;;;0.60;99.90;;;;;;5075346;28;20040;-53
2023/12/01 11:49:24;;;;;;;24.47;8.30;;;0.70;99.90;;;;;;5075243;28;20404;-53
2023/12/01 11:51:50;;;;;;;25.13;8.40;;;0.60;99.90;;;;;;5075274;28;20068;-53
2023/12/01 11:54:16;;;;;;;22.77;7.87;;;0.70;99.90;;;;;;5075224;28;20057;-53
2023/12/01 11:56:50;;;;;;;27.73;8.70;;;0.70;99.90;;;;;;5074108;28;20553;-54
2023/12/01 11:59:16;;;;;;;23.20;7.47;;;0.60;99.90;;;;;;5075123;28;20028;-52
2023/12/01 12:01:42;;;;;;;21.23;6.83;;;0.60;99.90;;;;;;5075070;28;20064;-53
2023/12/01 12:04:11;;;;;;;20.83;7.10;;;0.60;99.90;;;;;;5074864;28;20082;-52
2023/12/01 12:06:36;;;;;;;24.03;7.93;;;0.60;99.90;;;;;;5075014;28;20416;-52
2023/12/01 12:09:06;;;;;;;20.50;7.20;;;0.70;99.90;;;;;;5074842;28;20024;-49
2023/12/01 12:11:34;;;;;;;21.43;7.20;;;0.70;99.90;;;;;;5074991;28;20020;-54
2023/12/01 12:14:04;;;;;;;21.77;7.93;;;0.70;99.90;;;;;;5074801;28;20029;-49
2023/12/01 12:16:30;;;;;;;24.60;8.77;;;0.70;99.90;;;;;;5074705;28;20029;-50
2023/12/01 12:19:00;;;;;;;28.83;9.43;;;0.70;99.90;;;;;;5074711;28;20029;-53
2023/12/01 12:21:27;;;;;;;24.20;9.05;;;0.70;99.90;;;;;;5074722;28;20119;-49
2023/12/01 12:23:54;;;;;;;27.90;8.97;;;0.60;99.90;;;;;;5074722;28;20029;-48
2023/12/01 12:26:25;;;;;;;30.17;9.40;;;0.60;99.90;;;;;;5074678;28;20024;-50
2023/12/01 12:28:59;;;;;;;27.43;8.77;;;0.60;99.90;;;;;;5074502;28;20033;-48
2023/12/01 12:31:26;;;;;;;26.40;9.37;;;0.60;99.90;;;;;;5073714;28;20434;-50
2023/12/01 12:33:56;;;;;;;21.47;8.40;;;0.60;99.90;;;;;;5074700;28;20481;-48
2023/12/01 12:36:23;;;;;;;25.87;8.50;;;0.60;99.90;;;;;;5074612;28;20392;-48
2023/12/01 12:38:50;;;;;;;27.63;9.10;;;0.60;99.90;;;;;;5074285;28;20050;-51
2023/12/01 12:41:32;;;;;;;24.60;9.23;;;0.50;99.90;;;;;;5074357;28;20397;-49
2023/12/01 12:44:03;;;;;;;24.67;8.17;;;0.50;99.90;;;;;;5074268;28;20233;-50
2023/12/01 12:46:31;;;;;;;26.70;8.77;;;0.50;99.90;;;;;;5074273;28;20036;-54